createdAt,value
2023-05-10T00:01:00.664Z,14.00
2023-05-10T00:03:27.377Z,13.90
2023-05-10T00:05:54.064Z,14.00
2023-05-10T00:08:20.849Z,13.90
2023-05-10T00:10:47.475Z,13.90
2023-05-10T00:13:14.322Z,13.90
2023-05-10T00:15:40.996Z,13.90
2023-05-10T00:18:07.732Z,13.80
2023-05-10T00:20:34.506Z,13.90
2023-05-10T00:23:01.382Z,13.90
2023-05-10T00:25:28.016Z,13.90
2023-05-10T00:27:56.192Z,13.80
2023-05-10T00:30:23.467Z,13.80
2023-05-10T00:32:50.734Z,13.70
2023-05-10T00:35:17.654Z,13.70
2023-05-10T00:37:44.290Z,13.70
2023-05-10T00:40:11.613Z,13.70
2023-05-10T00:42:38.288Z,13.70
2023-05-10T00:45:05.829Z,13.70
2023-05-10T00:47:33.138Z,13.70
2023-05-10T00:50:01.511Z,13.60
2023-05-10T00:52:30.037Z,13.50
2023-05-10T00:54:57.525Z,13.50
2023-05-10T00:57:24.363Z,13.40
2023-05-10T00:59:52.422Z,13.40
2023-05-10T01:02:19.085Z,13.50
2023-05-10T01:04:45.916Z,13.40
2023-05-10T01:07:12.603Z,13.40
2023-05-10T01:09:39.308Z,13.30
2023-05-10T01:12:08.060Z,13.30
2023-05-10T01:14:37.067Z,13.40
2023-05-10T01:17:04.813Z,13.40
2023-05-10T01:19:32.700Z,13.40
2023-05-10T01:22:41.850Z,13.40
2023-05-10T01:25:31.453Z,13.40
2023-05-10T01:28:38.305Z,13.40
2023-05-10T01:31:32.013Z,13.30
2023-05-10T01:34:22.006Z,13.20
2023-05-10T01:37:22.829Z,13.30
2023-05-10T01:40:13.416Z,13.30
2023-05-10T01:42:50.809Z,13.30
2023-05-10T01:45:58.940Z,13.30
2023-05-10T01:48:28.219Z,13.30
2023-05-10T01:50:57.382Z,13.20
2023-05-10T01:53:25.720Z,13.20
2023-05-10T01:55:56.113Z,13.20
2023-05-10T01:58:30.275Z,13.20
2023-05-10T02:01:02.761Z,13.20
2023-05-10T02:03:31.120Z,13.10
2023-05-10T02:05:58.891Z,13.10
2023-05-10T02:08:26.575Z,13.10
2023-05-10T02:10:56.744Z,13.10
2023-05-10T02:13:25.783Z,13.10
2023-05-10T02:15:55.390Z,13.20
2023-05-10T02:18:23.580Z,13.20
2023-05-10T02:20:52.152Z,13.20
2023-05-10T02:23:19.651Z,13.20
2023-05-10T02:25:48.430Z,13.20
2023-05-10T02:28:16.422Z,13.10
2023-05-10T02:30:43.829Z,13.20
2023-05-10T02:33:11.811Z,13.20
2023-05-10T02:35:39.250Z,13.20
2023-05-10T02:38:08.349Z,13.20
2023-05-10T02:40:36.545Z,13.20
2023-05-10T02:43:04.981Z,13.20
2023-05-10T02:45:33.264Z,13.10
2023-05-10T02:48:01.008Z,13.10
2023-05-10T02:50:30.734Z,13.10
2023-05-10T02:53:05.144Z,13.10
2023-05-10T02:55:39.224Z,13.10
2023-05-10T02:58:06.314Z,13.10
2023-05-10T03:00:33.198Z,13.10
2023-05-10T03:02:59.995Z,13.00
2023-05-10T03:05:26.680Z,13.00
2023-05-10T03:07:53.780Z,13.00
2023-05-10T03:10:23.840Z,13.00
2023-05-10T03:13:30.146Z,13.00
2023-05-10T03:16:13.040Z,13.00
2023-05-10T03:18:56.027Z,13.00
2023-05-10T03:21:27.187Z,13.00
2023-05-10T03:24:07.202Z,13.00
2023-05-10T03:26:34.728Z,13.00
2023-05-10T03:29:01.863Z,12.90
2023-05-10T03:31:28.758Z,12.80
2023-05-10T03:33:55.446Z,12.80
2023-05-10T03:36:22.128Z,12.90
2023-05-10T03:38:48.775Z,12.80
2023-05-10T03:41:15.405Z,12.80
2023-05-10T03:43:42.407Z,12.90
2023-05-10T03:46:09.097Z,12.80
2023-05-10T03:48:35.761Z,12.80
2023-05-10T03:51:02.333Z,12.80
2023-05-10T03:53:28.939Z,12.80
2023-05-10T03:55:55.575Z,12.70
2023-05-10T03:58:22.754Z,12.80
2023-05-10T04:00:49.379Z,12.80
2023-05-10T04:03:16.166Z,12.80
2023-05-10T04:05:42.976Z,12.70
2023-05-10T04:08:09.651Z,12.70
2023-05-10T04:10:36.328Z,12.70
2023-05-10T04:13:02.963Z,12.70
2023-05-10T04:15:29.633Z,12.80
2023-05-10T04:17:56.284Z,12.70
2023-05-10T04:20:22.974Z,12.80
2023-05-10T04:22:49.565Z,12.70
2023-05-10T04:25:16.157Z,12.80
2023-05-10T04:27:42.875Z,12.80
2023-05-10T04:30:10.196Z,12.90
2023-05-10T04:32:37.095Z,12.90
2023-05-10T04:35:05.534Z,12.90
2023-05-10T04:37:32.202Z,12.80
2023-05-10T04:40:00.842Z,12.90
2023-05-10T04:42:27.464Z,12.90
2023-05-10T04:44:54.113Z,12.90
2023-05-10T04:47:20.816Z,12.90
2023-05-10T04:49:47.531Z,12.90
2023-05-10T04:52:15.219Z,12.90
2023-05-10T04:54:41.784Z,13.00
2023-05-10T04:57:08.355Z,13.00
2023-05-10T04:59:38.129Z,13.00
2023-05-10T05:02:05.842Z,12.90
2023-05-10T05:04:32.553Z,12.90
2023-05-10T05:06:59.128Z,13.00
2023-05-10T05:09:25.714Z,12.90
2023-05-10T05:11:52.365Z,12.90
2023-05-10T05:14:18.969Z,12.90
2023-05-10T05:16:45.610Z,13.00
2023-05-10T05:19:12.258Z,13.00
2023-05-10T05:21:39.020Z,13.00
2023-05-10T05:24:06.513Z,13.10
2023-05-10T05:26:34.910Z,13.10
2023-05-10T05:29:01.505Z,13.10
2023-05-10T05:31:28.096Z,13.10
2023-05-10T05:33:54.794Z,13.20
2023-05-10T05:36:21.427Z,13.20
2023-05-10T05:38:48.557Z,13.20
2023-05-10T05:41:15.149Z,13.20
2023-05-10T05:43:41.731Z,13.40
2023-05-10T05:46:08.545Z,13.40
2023-05-10T05:48:35.312Z,13.40
2023-05-10T05:51:02.499Z,13.40
2023-05-10T05:53:29.076Z,13.50
2023-05-10T05:55:58.022Z,13.60
2023-05-10T05:58:26.142Z,13.70
2023-05-10T06:00:53.503Z,13.60
2023-05-10T06:03:20.953Z,13.70
2023-05-10T06:05:48.443Z,13.70
2023-05-10T06:08:15.065Z,13.60
2023-05-10T06:10:41.646Z,13.60
2023-05-10T06:13:08.318Z,13.60
2023-05-10T06:15:35.480Z,13.70
2023-05-10T06:18:02.156Z,13.80
2023-05-10T06:20:28.922Z,13.90
2023-05-10T06:22:55.607Z,14.10
2023-05-10T06:25:22.254Z,14.40
2023-05-10T06:27:51.931Z,14.90
2023-05-10T06:30:21.006Z,15.90
2023-05-10T06:32:47.629Z,16.20
2023-05-10T06:35:14.295Z,16.80
2023-05-10T06:40:08.665Z,17.60
2023-05-10T06:47:31.730Z,18.40
2023-05-10T06:49:58.423Z,18.50
2023-05-10T06:57:30.700Z,16.50
2023-05-10T07:04:53.436Z,15.90
2023-05-10T07:07:20.253Z,15.80
2023-05-10T07:09:47.016Z,15.70
2023-05-10T07:12:15.210Z,15.60
2023-05-10T07:14:43.198Z,15.70
2023-05-10T07:17:10.821Z,15.60
2023-05-10T07:19:37.531Z,15.40
2023-05-10T07:22:04.314Z,15.50
2023-05-10T07:24:32.101Z,15.50
2023-05-10T07:26:58.829Z,15.60
2023-05-10T07:29:25.515Z,15.50
2023-05-10T07:31:52.227Z,15.40
2023-05-10T07:34:18.971Z,15.30
2023-05-10T07:36:45.735Z,15.20
2023-05-10T07:39:16.245Z,15.10
2023-05-10T07:41:47.835Z,15.10
2023-05-10T07:44:14.393Z,15.10
2023-05-10T07:46:41.359Z,15.00
2023-05-10T07:49:08.009Z,14.90
2023-05-10T07:51:34.647Z,15.00
2023-05-10T07:54:01.255Z,15.10
2023-05-10T07:56:31.060Z,15.10
2023-05-10T07:58:58.398Z,15.10
2023-05-10T08:01:25.733Z,15.00
2023-05-10T08:03:54.147Z,15.00
2023-05-10T08:06:21.812Z,15.10
2023-05-10T08:08:51.181Z,15.20
2023-05-10T08:11:22.008Z,15.30
2023-05-10T08:13:50.616Z,15.30
2023-05-10T08:16:17.950Z,15.30
2023-05-10T08:18:47.576Z,15.30
2023-05-10T08:21:15.278Z,15.10
2023-05-10T08:23:42.145Z,14.90
2023-05-10T08:26:08.736Z,14.90
2023-05-10T08:28:35.320Z,14.80
2023-05-10T08:31:01.928Z,15.00
2023-05-10T08:33:28.575Z,15.30
2023-05-10T08:35:55.206Z,15.40
2023-05-10T08:38:21.807Z,15.60
2023-05-10T08:40:51.578Z,15.60
2023-05-10T08:43:19.761Z,15.70
2023-05-10T08:45:47.750Z,16.00
2023-05-10T08:48:15.336Z,16.40
2023-05-10T08:50:43.750Z,16.60
2023-05-10T08:53:12.637Z,16.70
2023-05-10T08:55:41.038Z,16.50
2023-05-10T08:58:07.998Z,16.10
2023-05-10T09:00:35.808Z,15.70
2023-05-10T09:03:04.296Z,15.60
2023-05-10T09:05:31.314Z,15.50
2023-05-10T09:08:01.270Z,15.20
2023-05-10T09:10:29.464Z,15.20
2023-05-10T09:12:59.301Z,15.30
2023-05-10T09:15:26.618Z,15.50
2023-05-10T09:17:53.608Z,15.80
2023-05-10T09:20:20.546Z,15.80
2023-05-10T09:22:47.217Z,15.90
2023-05-10T09:25:16.671Z,16.30
2023-05-10T09:27:48.620Z,16.50
2023-05-10T09:30:28.521Z,16.70
2023-05-10T09:32:56.390Z,17.10
2023-05-10T09:35:31.031Z,17.40
2023-05-10T09:38:01.456Z,17.50
2023-05-10T09:40:30.803Z,17.50
2023-05-10T09:43:06.741Z,17.50
2023-05-10T09:48:06.167Z,18.40
2023-05-10T09:50:32.909Z,19.30
2023-05-10T09:53:04.145Z,20.60
2023-05-10T09:55:45.991Z,21.70
2023-05-10T09:58:14.892Z,22.30
2023-05-10T10:00:44.354Z,23.00
2023-05-10T10:05:48.524Z,23.40
2023-05-10T10:08:16.558Z,23.30
2023-05-10T10:10:46.626Z,23.40
2023-05-10T10:13:13.657Z,24.30
2023-05-10T10:15:40.548Z,24.60
2023-05-10T10:20:34.834Z,23.20
2023-05-10T10:23:01.463Z,22.70
2023-05-10T10:25:28.320Z,22.30
2023-05-10T10:30:39.508Z,20.80
2023-05-10T10:33:40.862Z,20.60
2023-05-10T10:36:08.296Z,20.20
2023-05-10T10:38:50.270Z,19.30
2023-05-10T10:41:37.019Z,19.10
2023-05-10T10:44:34.868Z,18.70
2023-05-10T10:47:15.238Z,18.30
2023-05-10T10:49:42.108Z,18.10
2023-05-10T10:52:34.031Z,17.90
2023-05-10T10:55:02.882Z,17.80
2023-05-10T10:57:45.477Z,17.60
2023-05-10T11:00:25.260Z,17.60
2023-05-10T11:03:15.250Z,17.50
2023-05-10T11:05:43.693Z,17.70
2023-05-10T11:08:20.761Z,17.90
2023-05-10T11:11:15.567Z,17.80
2023-05-10T11:13:47.243Z,17.50
2023-05-10T11:16:20.793Z,17.50
2023-05-10T11:19:04.529Z,17.60
2023-05-10T11:21:33.451Z,17.70
2023-05-10T11:24:01.879Z,18.10
2023-05-10T11:26:34.800Z,18.10
2023-05-10T11:29:03.193Z,18.20
2023-05-10T11:31:30.396Z,18.20
2023-05-10T11:33:59.664Z,18.50
2023-05-10T11:36:29.422Z,18.60
2023-05-10T11:38:57.702Z,19.10
2023-05-10T11:41:25.543Z,19.10
2023-05-10T11:43:54.240Z,19.20
2023-05-10T11:46:28.077Z,19.10
2023-05-10T11:49:02.390Z,19.30
2023-05-10T11:51:29.016Z,19.30
2023-05-10T11:53:57.470Z,19.40
2023-05-10T11:56:24.400Z,19.50
2023-05-10T11:58:56.662Z,19.40
2023-05-10T12:01:25.296Z,19.20
2023-05-10T12:03:54.225Z,19.30
2023-05-10T12:06:22.046Z,19.10
2023-05-10T12:08:53.430Z,18.90
2023-05-10T12:11:22.538Z,18.90
2023-05-10T12:13:50.706Z,18.60
2023-05-10T12:16:26.990Z,18.50
2023-05-10T12:18:57.993Z,18.30
2023-05-10T12:21:25.734Z,18.00
2023-05-10T12:23:55.523Z,17.60
2023-05-10T12:26:27.365Z,17.50
2023-05-10T12:28:55.186Z,17.40
2023-05-10T12:31:22.101Z,17.40
2023-05-10T12:33:50.154Z,17.40
2023-05-10T12:36:17.689Z,17.40
2023-05-10T12:38:48.906Z,17.30
2023-05-10T12:41:18.468Z,17.20
2023-05-10T12:43:48.970Z,17.30
2023-05-10T12:46:17.911Z,17.30
2023-05-10T12:48:47.079Z,17.20
2023-05-10T12:51:16.405Z,17.10
2023-05-10T12:53:45.651Z,17.30
2023-05-10T12:56:12.827Z,17.70
2023-05-10T12:58:39.640Z,18.00
2023-05-10T13:01:06.600Z,18.10
2023-05-10T13:03:33.586Z,18.10
2023-05-10T13:06:00.391Z,18.30
2023-05-10T13:08:27.086Z,18.40
2023-05-10T13:10:54.066Z,18.60
2023-05-10T13:13:20.657Z,18.50
2023-05-10T13:15:47.276Z,18.40
2023-05-10T13:18:14.374Z,18.10
2023-05-10T13:20:41.055Z,18.10
2023-05-10T13:23:07.634Z,18.00
2023-05-10T13:25:35.192Z,17.90
2023-05-10T13:28:02.093Z,18.10
2023-05-10T13:30:29.660Z,18.20
2023-05-10T13:32:56.264Z,18.40
2023-05-10T13:35:22.987Z,18.60
2023-05-10T13:37:49.703Z,18.80
2023-05-10T13:40:17.796Z,18.80
2023-05-10T13:42:44.649Z,19.20
2023-05-10T13:45:13.288Z,19.40
2023-05-10T13:47:40.266Z,19.70
2023-05-10T13:50:07.933Z,19.40
2023-05-10T13:52:34.682Z,19.30
2023-05-10T13:55:01.507Z,19.20
2023-05-10T13:57:29.684Z,19.30
2023-05-10T13:59:57.615Z,19.30
2023-05-10T14:02:25.454Z,19.30
2023-05-10T14:04:52.336Z,19.50
2023-05-10T14:07:19.323Z,19.30
2023-05-10T14:09:45.884Z,19.00
2023-05-10T14:12:12.519Z,18.70
2023-05-10T14:14:39.175Z,18.50
2023-05-10T14:17:06.143Z,18.40
2023-05-10T14:19:34.796Z,18.10
2023-05-10T14:22:01.487Z,18.10
2023-05-10T14:24:28.133Z,18.10
2023-05-10T14:26:54.876Z,17.80
2023-05-10T14:29:22.867Z,17.60
2023-05-10T14:31:50.526Z,17.30
2023-05-10T14:34:17.124Z,17.10
2023-05-10T14:36:43.828Z,16.90
2023-05-10T14:39:11.080Z,16.70
2023-05-10T14:41:37.964Z,16.60
2023-05-10T14:44:04.636Z,16.40
2023-05-10T14:46:31.282Z,16.40
2023-05-10T14:48:57.880Z,16.20
2023-05-10T14:51:24.442Z,16.20
2023-05-10T14:53:51.099Z,16.20
2023-05-10T14:56:17.689Z,16.10
2023-05-10T14:58:44.239Z,16.20
2023-05-10T15:01:10.881Z,16.30
2023-05-10T15:03:38.302Z,16.60
2023-05-10T15:06:05.950Z,16.80
2023-05-10T15:08:32.521Z,16.90
2023-05-10T15:10:59.102Z,16.80
2023-05-10T15:13:27.921Z,16.60
2023-05-10T15:15:54.621Z,16.80
2023-05-10T15:18:21.230Z,16.90
2023-05-10T15:20:47.815Z,17.00
2023-05-10T15:23:14.417Z,17.20
2023-05-10T15:25:41.063Z,17.50
2023-05-10T15:28:07.759Z,17.60
2023-05-10T15:30:34.311Z,17.60
2023-05-10T15:33:00.914Z,17.80
2023-05-10T15:35:28.031Z,18.00
2023-05-10T15:37:54.601Z,18.00
2023-05-10T15:40:21.175Z,17.90
2023-05-10T15:42:47.725Z,17.90
2023-05-10T15:45:14.472Z,18.00
2023-05-10T15:47:41.287Z,18.00
2023-05-10T15:50:09.477Z,18.10
2023-05-10T15:52:36.072Z,18.10
2023-05-10T15:55:03.973Z,18.10
2023-05-10T15:57:30.604Z,18.10
2023-05-10T15:59:58.100Z,17.90
2023-05-10T16:02:24.880Z,17.90
2023-05-10T16:04:51.750Z,18.00
2023-05-10T16:07:18.495Z,18.00
2023-05-10T16:09:45.197Z,18.00
2023-05-10T16:12:11.861Z,18.00
2023-05-10T16:14:38.442Z,18.00
2023-05-10T16:17:05.215Z,18.00
2023-05-10T16:19:32.083Z,18.00
2023-05-10T16:21:58.760Z,18.00
2023-05-10T16:24:26.204Z,18.00
2023-05-10T16:26:53.386Z,18.00
2023-05-10T16:29:20.100Z,17.90
2023-05-10T16:31:46.838Z,17.80
2023-05-10T16:34:13.702Z,17.80
2023-05-10T16:36:40.547Z,17.80
2023-05-10T16:39:07.287Z,17.70
2023-05-10T16:41:34.565Z,17.70
2023-05-10T16:44:02.319Z,17.60
2023-05-10T16:46:29.043Z,17.50
2023-05-10T16:48:55.722Z,17.40
2023-05-10T16:51:22.346Z,17.30
2023-05-10T16:53:48.919Z,17.20
2023-05-10T16:56:17.642Z,17.10
2023-05-10T16:58:44.343Z,16.90
2023-05-10T17:01:11.121Z,16.80
2023-05-10T17:03:37.935Z,16.80
2023-05-10T17:06:06.442Z,16.70
2023-05-10T17:08:33.630Z,16.70
2023-05-10T17:11:04.059Z,16.70
2023-05-10T17:13:31.772Z,16.70
2023-05-10T17:15:58.544Z,16.70
2023-05-10T17:18:26.474Z,16.60
2023-05-10T17:20:53.130Z,16.70
2023-05-10T17:23:19.886Z,16.70
2023-05-10T17:25:46.525Z,16.70
2023-05-10T17:28:13.234Z,16.60
2023-05-10T17:30:39.860Z,16.50
2023-05-10T17:33:06.636Z,16.50
2023-05-10T17:35:33.974Z,16.50
2023-05-10T17:38:00.734Z,16.50
2023-05-10T17:40:27.501Z,16.50
2023-05-10T17:42:54.110Z,16.40
2023-05-10T17:45:20.944Z,16.30
2023-05-10T17:47:47.533Z,16.30
2023-05-10T17:50:14.146Z,16.20
2023-05-10T17:52:40.844Z,16.00
2023-05-10T17:55:08.470Z,15.90
2023-05-10T17:57:37.850Z,15.80
2023-05-10T18:00:06.443Z,15.70
2023-05-10T18:02:33.247Z,15.70
2023-05-10T18:05:01.585Z,15.70
2023-05-10T18:07:29.870Z,15.60
2023-05-10T18:09:59.392Z,15.50
2023-05-10T18:12:26.414Z,15.40
2023-05-10T18:14:53.010Z,15.40
2023-05-10T18:17:19.664Z,15.30
2023-05-10T18:19:46.264Z,15.30
2023-05-10T18:22:12.838Z,15.30
2023-05-10T18:24:40.064Z,15.30
2023-05-10T18:27:09.073Z,15.30
2023-05-10T18:29:36.853Z,15.40
2023-05-10T18:32:03.625Z,15.30
2023-05-10T18:34:30.218Z,15.20
2023-05-10T18:36:56.941Z,15.10
2023-05-10T18:39:24.188Z,15.00
2023-05-10T18:41:50.978Z,15.00
2023-05-10T18:44:18.701Z,14.90
2023-05-10T18:46:45.371Z,14.90
2023-05-10T18:49:12.036Z,15.00
2023-05-10T18:51:38.631Z,15.00
2023-05-10T18:54:05.337Z,15.00
2023-05-10T18:56:31.954Z,14.90
2023-05-10T18:58:58.523Z,14.80
2023-05-10T19:01:25.336Z,14.70
2023-05-10T19:03:51.923Z,14.70
2023-05-10T19:06:18.488Z,14.80
2023-05-10T19:08:45.149Z,14.80
2023-05-10T19:11:12.201Z,14.80
2023-05-10T19:13:38.812Z,14.80
2023-05-10T19:16:17.161Z,14.70
2023-05-10T19:18:46.642Z,14.60
2023-05-10T19:21:13.290Z,14.50
2023-05-10T19:23:41.573Z,14.40
2023-05-10T19:26:12.194Z,14.40
2023-05-10T19:28:38.866Z,14.40
2023-05-10T19:31:06.162Z,14.40
2023-05-10T19:33:33.124Z,14.50
2023-05-10T19:35:59.844Z,14.50
2023-05-10T19:38:26.462Z,14.30
2023-05-10T19:40:59.392Z,14.40
2023-05-10T19:43:27.726Z,14.30
2023-05-10T19:45:59.012Z,14.20
2023-05-10T19:48:26.329Z,14.10
2023-05-10T19:50:54.182Z,14.00
2023-05-10T19:53:20.937Z,14.00
2023-05-10T19:55:47.517Z,14.00
2023-05-10T19:58:14.589Z,13.90
2023-05-10T20:00:41.178Z,13.90
2023-05-10T20:03:09.285Z,13.80
2023-05-10T20:05:36.071Z,13.80
2023-05-10T20:08:02.759Z,13.80
2023-05-10T20:10:29.519Z,13.70
2023-05-10T20:12:56.190Z,13.70
2023-05-10T20:15:23.506Z,13.70
2023-05-10T20:17:51.965Z,13.70
2023-05-10T20:20:20.088Z,13.70
2023-05-10T20:22:48.061Z,13.60
2023-05-10T20:25:15.842Z,13.60
2023-05-10T20:27:46.452Z,13.50
2023-05-10T20:30:14.106Z,13.50
2023-05-10T20:32:40.809Z,13.50
2023-05-10T20:35:07.977Z,13.50
2023-05-10T20:37:35.366Z,13.40
2023-05-10T20:40:02.001Z,13.40
2023-05-10T20:42:28.657Z,13.40
2023-05-10T20:44:55.387Z,13.40
2023-05-10T20:47:23.337Z,13.40
2023-05-10T20:49:50.456Z,13.30
2023-05-10T20:52:17.046Z,13.30
2023-05-10T20:54:43.648Z,13.30
2023-05-10T20:57:12.533Z,13.20
2023-05-10T20:59:39.136Z,13.20
2023-05-10T21:02:05.799Z,13.20
2023-05-10T21:04:32.532Z,13.20
2023-05-10T21:06:59.194Z,13.20
2023-05-10T21:09:28.011Z,13.10
2023-05-10T21:11:54.680Z,13.10
2023-05-10T21:14:21.377Z,13.00
2023-05-10T21:16:48.037Z,13.00
2023-05-10T21:19:14.669Z,12.90
2023-05-10T21:21:41.319Z,12.90
2023-05-10T21:24:07.909Z,12.80
2023-05-10T21:26:34.796Z,12.80
2023-05-10T21:29:01.520Z,12.70
2023-05-10T21:31:28.696Z,12.70
2023-05-10T21:33:55.310Z,12.60
2023-05-10T21:36:21.977Z,12.60
2023-05-10T21:38:50.335Z,12.60
2023-05-10T21:41:17.569Z,12.60
2023-05-10T21:43:44.330Z,12.60
2023-05-10T21:46:13.177Z,12.50
2023-05-10T21:48:39.996Z,12.50
2023-05-10T21:51:07.088Z,12.50
2023-05-10T21:53:37.264Z,12.40
2023-05-10T21:56:03.923Z,12.40
2023-05-10T21:58:31.859Z,12.40
2023-05-10T22:01:00.669Z,12.40
2023-05-10T22:03:27.387Z,12.20
2023-05-10T22:05:54.040Z,12.20
2023-05-10T22:08:20.821Z,12.20
2023-05-10T22:10:47.386Z,12.20
2023-05-10T22:13:14.050Z,12.20
2023-05-10T22:15:40.803Z,12.30
2023-05-10T22:18:07.476Z,12.20
2023-05-10T22:20:34.110Z,12.20
2023-05-10T22:23:00.875Z,12.20
2023-05-10T22:25:27.630Z,12.10
2023-05-10T22:27:54.199Z,12.10
2023-05-10T22:30:21.131Z,12.00
2023-05-10T22:32:59.913Z,12.00
2023-05-10T22:35:26.720Z,11.90
2023-05-10T22:37:53.391Z,11.80
2023-05-10T22:40:20.104Z,11.80
2023-05-10T22:42:46.718Z,11.70
2023-05-10T22:45:13.281Z,11.60
2023-05-10T22:47:39.919Z,11.50
2023-05-10T22:50:07.776Z,11.50
2023-05-10T22:52:34.411Z,11.40
2023-05-10T22:55:01.045Z,11.30
2023-05-10T22:57:27.718Z,11.30
2023-05-10T22:59:54.286Z,11.20
2023-05-10T23:02:21.139Z,11.20
2023-05-10T23:04:48.046Z,11.10
2023-05-10T23:07:14.667Z,11.00
2023-05-10T23:09:41.247Z,11.00
2023-05-10T23:12:08.098Z,11.00
2023-05-10T23:14:34.694Z,11.00
2023-05-10T23:17:01.270Z,11.00
2023-05-10T23:19:27.849Z,10.90
2023-05-10T23:21:54.536Z,10.90
2023-05-10T23:24:21.157Z,11.00
2023-05-10T23:26:47.769Z,11.00
2023-05-10T23:29:14.624Z,10.90
2023-05-10T23:31:45.241Z,11.00
2023-05-10T23:34:12.456Z,11.10
2023-05-10T23:36:39.254Z,11.10
2023-05-10T23:39:06.761Z,11.00
2023-05-10T23:41:33.820Z,11.10
2023-05-10T23:44:02.318Z,11.10
2023-05-10T23:46:29.081Z,11.00
2023-05-10T23:48:55.760Z,11.00
2023-05-10T23:51:22.358Z,11.00
2023-05-10T23:53:49.101Z,11.00
2023-05-10T23:56:15.687Z,11.00
2023-05-10T23:58:42.512Z,11.00
